Time;durP1;ratioP1;P1;durP2;ratioP2;P2;SDS_P1;SDS_P2;PMS_P1;PMS_P2;Temp;Humidity;BMP_temperature;BMP_pressure;BME280_temperature;BME280_humidity;BME280_pressure;Samples;Min_cycle;Max_cycle;Signal;HPM_P1;HPM_P2
2021/04/15 00:01:08;;;;;;;28.00;12.23;;;;;;;1.06;100.00;98714.56;5038423;28;20045;-78
2021/04/15 00:03:35;;;;;;;24.40;12.25;;;;;;;1.04;100.00;98712.16;5054673;28;20048;-76
2021/04/15 00:06:13;;;;;;;25.05;11.85;;;;;;;1.11;100.00;98712.06;5036865;28;20041;-77
2021/04/15 00:08:40;;;;;;;23.02;11.80;;;;;;;1.09;100.00;98712.28;5054661;28;20040;-77
2021/04/15 00:11:07;;;;;;;24.20;11.60;;;;;;;1.11;100.00;98702.19;5057368;28;20174;-76
2021/04/15 00:13:38;;;;;;;20.73;11.50;;;;;;;1.11;100.00;98704.06;5064227;28;20053;-76
2021/04/15 00:16:05;;;;;;;18.77;11.18;;;;;;;1.08;100.00;98705.34;5060217;28;20094;-77
2021/04/15 00:18:32;;;;;;;21.83;12.02;;;;;;;1.16;100.00;98705.00;5058779;28;20049;-77
2021/04/15 00:20:59;;;;;;;21.10;11.73;;;;;;;1.20;100.00;98702.69;5055002;28;20075;-78
2021/04/15 00:23:25;;;;;;;22.30;11.95;;;;;;;1.21;100.00;98705.13;5022713;28;20041;-76
2021/04/15 00:25:53;;;;;;;23.73;12.25;;;;;;;1.25;100.00;98698.28;5056444;28;20041;-77
2021/04/15 00:28:19;;;;;;;25.88;12.02;;;;;;;1.20;100.00;98700.84;5038921;28;20041;-77
2021/04/15 00:30:48;;;;;;;17.90;11.23;;;;;;;1.25;100.00;98702.81;5057364;28;20495;-77
2021/04/15 00:33:18;;;;;;;26.42;12.77;;;;;;;1.23;100.00;98702.25;5038645;28;20067;-76
2021/04/15 00:35:45;;;;;;;20.90;12.02;;;;;;;1.22;100.00;98693.41;5041752;28;20596;-77
2021/04/15 00:38:13;;;;;;;21.25;11.05;;;;;;;1.26;100.00;98694.56;5024785;28;20049;-77
2021/04/15 00:40:41;;;;;;;21.95;10.90;;;;;;;1.33;100.00;98691.81;5042234;28;20515;-77
2021/04/15 00:43:08;;;;;;;19.80;10.98;;;;;;;1.36;100.00;98683.38;5041392;28;20048;-75
2021/04/15 00:45:38;;;;;;;20.17;10.25;;;;;;;1.39;100.00;98704.25;5057083;28;20045;-76
2021/04/15 00:48:38;;;;;;;20.90;10.75;;;;;;;1.39;100.00;98690.91;5040470;28;20067;-76
2021/04/15 00:51:11;;;;;;;22.17;10.05;;;;;;;1.42;100.00;98690.44;5030948;28;20056;-77
2021/04/15 00:53:42;;;;;;;22.63;11.05;;;;;;;1.36;100.00;98686.03;5041240;28;20041;-77
2021/04/15 00:56:10;;;;;;;18.83;9.98;;;;;;;1.42;100.00;98690.44;5058631;28;20037;-77
2021/04/15 00:58:37;;;;;;;22.77;10.07;;;;;;;1.44;100.00;98687.53;5044377;28;20052;-77
2021/04/15 01:01:06;;;;;;;18.70;9.57;;;;;;;1.39;100.00;98692.75;5065675;28;20048;-76
2021/04/15 01:03:34;;;;;;;16.58;9.70;;;;;;;1.41;100.00;98690.66;5069121;28;20111;-77
2021/04/15 01:06:01;;;;;;;16.08;9.52;;;;;;;1.37;100.00;98692.19;5062697;28;20045;-78
2021/04/15 01:08:27;;;;;;;22.23;10.30;;;;;;;1.32;100.00;98697.41;5061241;28;20045;-77
2021/04/15 01:11:11;;;;;;;15.68;9.40;;;;;;;1.31;100.00;98701.91;5046156;28;20080;-77
2021/04/15 01:14:10;;;;;;;19.35;10.30;;;;;;;1.38;100.00;98693.78;5063511;28;20040;-78
2021/04/15 01:17:01;;;;;;;16.98;9.32;;;;;;;1.40;100.00;98694.38;5060803;28;20416;-76
2021/04/15 01:19:53;;;;;;;19.45;10.30;;;;;;;1.31;100.00;98688.56;5044195;28;20083;-77
2021/04/15 01:22:44;;;;;;;20.92;8.98;;;;;;;1.33;100.00;98693.66;5064104;28;20048;-76
2021/04/15 01:25:28;;;;;;;23.35;9.52;;;;;;;1.31;100.00;98696.56;5058829;28;20512;-77
2021/04/15 01:28:06;;;;;;;16.83;7.97;;;;;;;1.27;100.00;98700.72;5065115;28;20037;-77
2021/04/15 01:30:34;;;;;;;19.50;10.48;;;;;;;1.21;100.00;98694.44;5060671;28;20044;-78
2021/04/15 01:33:25;;;;;;;17.80;10.15;;;;;;;1.25;100.00;98692.97;5060520;28;20048;-76
2021/04/15 01:35:52;;;;;;;19.60;10.45;;;;;;;1.23;100.00;98683.56;5060776;28;20132;-78
2021/04/15 01:38:27;;;;;;;19.35;10.10;;;;;;;1.26;100.00;98678.56;5042727;28;20069;-76
2021/04/15 01:40:57;;;;;;;18.45;10.20;;;;;;;1.25;100.00;98682.28;5060005;28;20037;-76
2021/04/15 01:44:04;;;;;;;24.80;11.10;;;;;;;1.22;100.00;98680.09;5042060;28;20049;-77
2021/04/15 01:46:32;;;;;;;19.67;10.18;;;;;;;1.19;100.00;98677.88;5047848;28;20041;-77
2021/04/15 01:49:04;;;;;;;17.20;9.75;;;;;;;1.18;100.00;98681.59;5063904;28;20049;-78
2021/04/15 01:51:34;;;;;;;19.92;10.80;;;;;;;1.21;100.00;98685.66;5046504;28;20049;-76
2021/04/15 01:54:18;;;;;;;22.40;11.73;;;;;;;1.12;100.00;98677.16;5060477;28;20037;-77
2021/04/15 01:56:49;;;;;;;25.65;11.30;;;;;;;1.10;100.00;98676.59;5058432;28;20268;-77
2021/04/15 01:59:26;;;;;;;23.05;11.35;;;;;;;1.11;100.00;98691.53;5043522;28;20136;-76
2021/04/15 02:01:57;;;;;;;21.52;11.50;;;;;;;1.11;100.00;98680.06;5050928;28;20571;-76
2021/04/15 02:04:31;;;;;;;20.95;11.38;;;;;;;1.06;100.00;98674.59;5069267;28;20044;-76
2021/04/15 02:07:09;;;;;;;21.80;11.95;;;;;;;1.04;100.00;98690.81;5065279;28;20098;-76
2021/04/15 02:09:38;;;;;;;21.38;12.10;;;;;;;1.11;100.00;98693.41;5052650;28;20060;-77
2021/04/15 02:12:21;;;;;;;21.70;11.60;;;;;;;1.11;100.00;98685.41;5089337;23;20056;-76
2021/04/15 02:14:54;;;;;;;22.42;12.25;;;;;;;1.13;100.00;98689.47;5068164;28;20099;-77
2021/04/15 02:17:22;;;;;;;22.83;11.07;;;;;;;1.09;100.00;98690.94;5064981;28;20500;-77
2021/04/15 02:19:55;;;;;;;20.13;12.23;;;;;;;1.08;100.00;98678.69;5055476;28;20084;-76
2021/04/15 02:22:44;;;;;;;22.33;12.13;;;;;;;1.13;100.00;98691.31;5086087;28;20056;-77
2021/04/15 02:25:25;;;;;;;22.77;12.05;;;;;;;1.14;100.00;98677.75;5068784;28;20056;-78
2021/04/15 02:28:15;;;;;;;20.48;12.00;;;;;;;1.14;100.00;98692.94;5086791;28;20048;-77
2021/04/15 02:30:44;;;;;;;29.38;13.27;;;;;;;1.13;100.00;98684.13;5087230;28;20045;-78
2021/04/15 02:33:19;;;;;;;22.55;12.77;;;;;;;1.13;100.00;98680.66;5085865;28;20056;-75
2021/04/15 02:35:48;;;;;;;29.42;13.02;;;;;;;1.11;100.00;98677.41;5068665;28;20078;-79
2021/04/15 02:38:17;;;;;;;24.30;12.60;;;;;;;1.03;100.00;98683.84;5060143;28;20080;-76
2021/04/15 02:40:49;;;;;;;23.73;12.88;;;;;;;1.05;100.00;98687.13;5077942;28;20048;-75
2021/04/15 02:43:25;;;;;;;26.58;12.52;;;;;;;1.01;100.00;98682.44;5083350;28;20044;-75
2021/04/15 02:45:56;;;;;;;24.98;12.68;;;;;;;0.99;100.00;98682.69;5085247;28;20045;-77
2021/04/15 02:48:33;;;;;;;24.02;12.98;;;;;;;0.94;100.00;98687.06;5067094;28;20044;-77
2021/04/15 02:51:07;;;;;;;24.90;13.13;;;;;;;0.87;100.00;98671.19;5087350;28;20216;-78
2021/04/15 02:53:39;;;;;;;25.33;13.63;;;;;;;0.87;100.00;98681.84;5087341;28;20072;-77
2021/04/15 02:56:12;;;;;;;23.45;12.98;;;;;;;0.87;100.00;98681.03;5086693;28;20294;-77
2021/04/15 02:58:47;;;;;;;26.23;13.80;;;;;;;0.94;100.00;98682.56;5085807;28;20048;-79
2021/04/15 03:01:19;;;;;;;25.85;13.23;;;;;;;0.91;100.00;98687.53;5065932;28;20060;-78
2021/04/15 03:03:49;;;;;;;24.92;13.93;;;;;;;0.91;100.00;98683.00;5083954;28;20040;-78
2021/04/15 03:06:23;;;;;;;23.98;13.70;;;;;;;0.89;100.00;98671.78;5083322;28;20426;-78
2021/04/15 03:08:58;;;;;;;29.75;13.77;;;;;;;0.83;100.00;98671.84;5085132;28;20045;-79
2021/04/15 03:11:31;;;;;;;27.38;13.75;;;;;;;0.84;100.00;98684.16;5084970;28;20044;-78
2021/04/15 03:14:02;;;;;;;25.27;14.07;;;;;;;0.77;100.00;98675.44;5085395;28;20047;-77
2021/04/15 03:16:33;;;;;;;28.25;14.73;;;;;;;0.79;100.00;98686.69;5085749;28;20044;-77
2021/04/15 03:19:23;;;;;;;28.20;14.60;;;;;;;0.70;100.00;98678.19;5064822;28;20051;-76
2021/04/15 03:21:58;;;;;;;29.88;14.50;;;;;;;0.73;100.00;98696.38;5082620;28;20045;-76
2021/04/15 03:24:35;;;;;;;;;;;;;;;0.75;100.00;98690.84;5039366;28;20048;-78
2021/04/15 03:27:12;;;;;;;28.90;14.35;;;;;;;0.71;100.00;98685.16;5078173;28;19958;-77
2021/04/15 03:29:48;;;;;;;24.83;14.60;;;;;;;0.67;100.00;98684.00;5079360;28;20159;-78
2021/04/15 03:32:13;;;;;;;;;;;;;;;0.72;100.00;98691.31;5081594;28;20048;-76
2021/04/15 03:34:52;;;;;;;28.15;14.73;;;;;;;0.73;100.00;98698.25;5082696;28;19977;-76
2021/04/15 03:37:23;;;;;;;35.08;15.80;;;;;;;0.69;100.00;98686.41;5072212;28;20106;-77
2021/04/15 03:39:52;;;;;;;29.08;15.45;;;;;;;0.75;100.00;98701.50;5088434;28;20040;-77
2021/04/15 03:42:38;;;;;;;32.28;16.55;;;;;;;0.78;100.00;98699.19;5065220;28;20040;-79
2021/04/15 03:45:08;;;;;;;;;;;;;;;0.77;100.00;98694.91;5084110;28;20116;-77
2021/04/15 03:47:40;;;;;;;29.80;14.70;;;;;;;0.76;100.00;98695.13;5065570;28;19920;-77
2021/04/15 03:50:20;;;;;;;34.58;16.42;;;;;;;0.76;100.00;98698.59;5062258;28;20288;-77
2021/04/15 03:52:58;;;;;;;31.77;15.70;;;;;;;0.75;100.00;98696.97;5066889;28;20059;-76
2021/04/15 03:55:33;;;;;;;28.48;16.50;;;;;;;0.76;100.00;98693.28;5087572;28;20036;-76
2021/04/15 03:58:07;;;;;;;28.85;15.85;;;;;;;0.79;100.00;98695.50;5086804;28;20058;-77
2021/04/15 04:00:38;;;;;;;31.55;16.00;;;;;;;0.81;100.00;98696.06;5088143;28;20052;-77
2021/04/15 04:03:17;;;;;;;34.78;16.58;;;;;;;0.82;100.00;98695.06;5087261;28;20051;-78
2021/04/15 04:05:49;;;;;;;31.17;16.27;;;;;;;0.77;100.00;98691.44;5086228;28;20045;-77
2021/04/15 04:08:35;;;;;;;33.22;17.80;;;;;;;0.81;100.00;98703.25;5085258;28;20040;-77
2021/04/15 04:11:03;;;;;;;35.00;17.80;;;;;;;0.84;100.00;98700.97;5088006;28;20044;-78
2021/04/15 04:13:35;;;;;;;38.80;17.17;;;;;;;0.84;100.00;98703.63;5084854;28;20135;-79
2021/04/15 04:16:11;;;;;;;29.30;17.70;;;;;;;0.85;100.00;98699.13;5090814;28;20043;-78
2021/04/15 04:19:26;;;;;;;34.15;18.13;;;;;;;0.83;100.00;98707.31;5071650;28;20083;-77
2021/04/15 04:22:05;;;;;;;35.28;16.90;;;;;;;0.92;100.00;98713.97;5050070;28;20053;-76
2021/04/15 04:24:47;;;;;;;36.20;17.70;;;;;;;0.86;100.00;98712.19;5079994;28;20037;-78
2021/04/15 04:27:22;;;;;;;34.40;18.52;;;;;;;0.99;100.00;98725.34;5089105;28;20340;-79
2021/04/15 04:30:12;;;;;;;34.70;18.02;;;;;;;1.06;100.00;98714.56;5082261;28;20086;-81
2021/04/15 04:32:40;;;;;;;33.70;17.38;;;;;;;1.10;100.00;98716.59;5059366;28;20128;-76
2021/04/15 04:35:15;;;;;;;34.38;17.30;;;;;;;1.10;100.00;98721.91;5064685;28;20384;-75
2021/04/15 04:37:44;;;;;;;31.70;16.70;;;;;;;1.10;100.00;98729.91;5041238;28;20049;-77
2021/04/15 04:40:20;;;;;;;31.15;17.45;;;;;;;0.97;100.00;98714.09;5074749;28;20048;-77
2021/04/15 04:42:54;;;;;;;36.15;17.42;;;;;;;0.98;100.00;98723.72;5057794;28;20064;-75
2021/04/15 04:45:23;;;;;;;36.15;17.23;;;;;;;0.94;100.00;98717.22;5076470;28;20104;-77
2021/04/15 04:47:59;;;;;;;31.23;17.90;;;;;;;0.91;100.00;98719.50;5076998;28;20044;-76
2021/04/15 04:50:40;;;;;;;34.15;17.55;;;;;;;0.84;100.00;98716.13;5079753;28;20048;-75
2021/04/15 04:53:11;;;;;;;36.92;17.73;;;;;;;0.83;100.00;98719.81;5060434;28;20048;-77
2021/04/15 04:55:56;;;;;;;32.17;17.73;;;;;;;0.86;100.00;98730.84;5073345;28;20244;-78
2021/04/15 04:58:23;;;;;;;33.38;17.52;;;;;;;0.78;100.00;98731.16;5060580;28;20411;-77
2021/04/15 05:00:53;;;;;;;37.58;18.55;;;;;;;0.84;100.00;98724.94;5065768;28;20052;-78
2021/04/15 05:03:26;;;;;;;33.67;18.40;;;;;;;0.83;100.00;98738.47;5076366;28;20048;-76
2021/04/15 05:06:07;;;;;;;39.38;18.17;;;;;;;0.92;100.00;98743.28;5074706;28;20116;-76
2021/04/15 05:09:09;;;;;;;37.47;17.83;;;;;;;0.97;100.00;98724.78;5050691;28;20044;-76
2021/04/15 05:11:39;;;;;;;44.65;18.17;;;;;;;0.97;100.00;98738.09;5070977;28;20504;-77
2021/04/15 05:14:07;;;;;;;38.95;18.35;;;;;;;0.99;100.00;98740.53;5071201;28;20044;-78
2021/04/15 05:17:02;;;;;;;31.83;17.65;;;;;;;1.08;100.00;98736.50;5052587;28;20049;-77
2021/04/15 05:19:32;;;;;;;39.20;18.00;;;;;;;1.03;100.00;98737.19;5035603;28;20123;-78
2021/04/15 05:22:00;;;;;;;36.03;17.77;;;;;;;0.97;100.00;98748.75;5068878;28;20538;-76
2021/04/15 05:24:34;;;;;;;34.38;17.83;;;;;;;0.88;100.00;98739.44;5054845;28;20075;-77
2021/04/15 05:27:02;;;;;;;40.10;17.88;;;;;;;0.91;100.00;98747.00;5072581;28;20063;-78
2021/04/15 05:29:33;;;;;;;36.88;18.20;;;;;;;0.92;100.00;98745.97;5055181;28;20044;-76
2021/04/15 05:32:00;;;;;;;36.05;18.55;;;;;;;0.89;100.00;98737.59;5072617;28;20044;-76
2021/04/15 05:34:33;;;;;;;48.08;20.13;;;;;;;0.93;100.00;98742.25;5052288;28;20415;-77
2021/04/15 05:37:03;;;;;;;36.10;18.10;;;;;;;0.99;100.00;98730.69;5057119;28;20106;-75
2021/04/15 05:39:30;;;;;;;35.30;18.90;;;;;;;1.03;100.00;98744.38;5070411;28;20048;-76
2021/04/15 05:42:04;;;;;;;36.65;18.02;;;;;;;1.05;100.00;98729.78;5052445;28;20075;-76
2021/04/15 05:44:47;;;;;;;33.22;17.77;;;;;;;1.11;100.00;98736.06;5055000;28;20231;-76
2021/04/15 05:47:25;;;;;;;34.50;17.35;;;;;;;1.17;100.00;98743.13;5073672;28;20071;-77
2021/04/15 05:49:56;;;;;;;37.10;17.60;;;;;;;1.20;100.00;98737.34;5054913;28;20143;-76
2021/04/15 05:52:29;;;;;;;35.00;17.98;;;;;;;1.25;100.00;98732.97;5073736;28;20331;-77
2021/04/15 05:55:16;;;;;;;31.42;17.13;;;;;;;1.29;100.00;98735.19;5071706;28;20040;-75
2021/04/15 05:57:45;;;;;;;35.65;17.95;;;;;;;1.34;100.00;98733.47;5032002;28;20049;-75
2021/04/15 06:00:28;;;;;;;46.03;19.75;;;;;;;1.32;100.00;98732.84;5033252;28;20487;-76
2021/04/15 06:03:01;;;;;;;33.30;15.40;;;;;;;1.44;100.00;98727.56;5052999;28;20045;-76
2021/04/15 06:05:40;;;;;;;29.02;15.88;;;;;;;1.40;100.00;98735.19;5036828;28;20041;-77
2021/04/15 06:08:10;;;;;;;30.85;16.52;;;;;;;1.51;100.00;98736.25;5056099;28;20048;-77
2021/04/15 06:10:39;;;;;;;41.42;18.25;;;;;;;1.58;100.00;98729.78;5038859;28;20522;-77
2021/04/15 06:13:13;;;;;;;37.38;19.65;;;;;;;1.52;100.00;98737.91;5071874;28;20456;-76
2021/04/15 06:15:45;;;;;;;38.92;19.67;;;;;;;1.62;100.00;98732.81;5071628;28;20317;-76
2021/04/15 06:18:28;;;;;;;45.60;20.55;;;;;;;1.66;100.00;98744.63;5072830;28;20056;-78
2021/04/15 06:21:16;;;;;;;39.47;20.85;;;;;;;1.74;100.00;98746.97;5055736;28;20044;-77
2021/04/15 06:23:57;;;;;;;40.83;22.38;;;;;;;1.62;100.00;98733.63;5080380;28;20039;-74
2021/04/15 06:26:41;;;;;;;41.40;22.40;;;;;;;1.77;100.00;98742.00;5081453;28;20052;-76
2021/04/15 06:29:15;;;;;;;40.30;20.77;;;;;;;1.95;100.00;98729.56;5075407;28;20064;-76
2021/04/15 06:31:45;;;;;;;35.20;18.45;;;;;;;1.89;100.00;98752.66;5074926;28;20048;-77
2021/04/15 06:34:12;;;;;;;32.22;16.30;;;;;;;2.04;100.00;98738.88;5055990;28;20490;-76
2021/04/15 06:36:57;;;;;;;29.85;18.23;;;;;;;2.15;100.00;98732.69;5075770;28;20052;-75
2021/04/15 06:39:34;;;;;;;33.70;19.20;;;;;;;2.12;100.00;98733.16;5055712;28;20052;-76
2021/04/15 06:42:07;;;;;;;33.83;15.20;;;;;;;2.20;100.00;98730.94;5075944;28;20044;-76
2021/04/15 06:44:52;;;;;;;28.60;15.48;;;;;;;2.35;100.00;98735.78;5077555;28;20045;-76
2021/04/15 06:47:41;;;;;;;28.15;13.48;;;;;;;2.37;100.00;98736.38;5079314;28;20100;-75
2021/04/15 06:50:19;;;;;;;24.38;10.88;;;;;;;2.45;100.00;98725.34;5078769;28;20543;-75
2021/04/15 06:52:53;;;;;;;18.63;9.93;;;;;;;2.56;100.00;98726.34;5078542;28;20063;-76
2021/04/15 06:55:43;;;;;;;20.05;9.25;;;;;;;2.42;100.00;98731.97;5077663;28;20051;-76
2021/04/15 06:58:31;;;;;;;21.55;8.45;;;;;;;2.53;100.00;98727.63;5079208;28;20048;-76
2021/04/15 07:01:14;;;;;;;16.70;8.38;;;;;;;2.69;100.00;98729.56;5078413;28;20486;-74
2021/04/15 07:04:03;;;;;;;19.40;9.07;;;;;;;2.95;100.00;98726.31;5077905;28;20048;-76
2021/04/15 07:06:38;;;;;;;14.00;6.10;;;;;;;3.21;100.00;98732.13;5079260;28;20044;-76
2021/04/15 07:09:42;;;;;;;12.57;5.20;;;;;;;3.27;100.00;98740.03;5080624;28;20045;-76
2021/04/15 07:12:36;;;;;;;9.32;5.20;;;;;;;3.47;100.00;98732.34;5063093;28;20488;-75
2021/04/15 07:15:17;;;;;;;13.32;5.75;;;;;;;3.49;100.00;98729.41;5070645;28;20051;-75
2021/04/15 07:18:21;;;;;;;15.10;5.35;;;;;;;3.82;100.00;98731.31;5070067;28;20052;-75
2021/04/15 07:21:13;;;;;;;9.68;4.63;;;;;;;3.92;100.00;98720.75;5049649;28;20054;-78
2021/04/15 07:24:01;;;;;;;10.50;4.38;;;;;;;3.78;100.00;98722.94;5049438;28;20337;-75
2021/04/15 07:27:05;;;;;;;8.25;4.85;;;;;;;3.85;100.00;98725.44;5031690;28;20055;-75
2021/04/15 07:30:04;;;;;;;11.30;5.25;;;;;;;4.35;100.00;98736.91;5061105;28;20047;-76
2021/04/15 07:32:54;;;;;;;10.93;4.03;;;;;;;4.37;100.00;98730.22;5050487;28;20060;-76
2021/04/15 07:36:18;;;;;;;9.13;3.92;;;;;;;4.33;100.00;98734.47;5069432;28;20118;-76
2021/04/15 07:38:56;;;;;;;7.18;3.80;;;;;;;4.17;100.00;98735.31;5001023;28;20054;-76
2021/04/15 07:41:36;;;;;;;15.80;4.20;;;;;;;4.28;100.00;98738.97;5006902;28;20049;-76
2021/04/15 07:44:16;;;;;;;7.40;4.28;;;;;;;4.27;100.00;98745.38;5021840;28;20056;-76
2021/04/15 07:47:07;;;;;;;6.82;3.47;;;;;;;4.45;100.00;98739.72;5049925;28;20126;-76
2021/04/15 07:50:08;;;;;;;7.30;3.58;;;;;;;4.32;100.00;98748.13;5041964;28;20050;-76
2021/04/15 07:53:11;;;;;;;5.78;2.50;;;;;;;4.43;100.00;98741.84;5068652;28;20059;-75
2021/04/15 07:55:44;;;;;;;4.78;2.65;;;;;;;4.33;100.00;98747.88;5067586;28;20037;-75
2021/04/15 07:58:22;;;;;;;5.05;2.50;;;;;;;4.88;100.00;98725.47;5069295;28;20048;-76
2021/04/15 08:01:08;;;;;;;5.15;2.10;;;;;;;4.67;100.00;98729.00;5071133;28;20049;-75
2021/04/15 08:03:58;;;;;;;5.75;2.33;;;;;;;4.88;100.00;98739.72;5050446;28;20083;-76
2021/04/15 08:06:31;;;;;;;8.60;2.50;;;;;;;5.07;100.00;98731.31;5072853;28;20052;-77
2021/04/15 08:09:22;;;;;;;5.22;2.60;;;;;;;5.45;100.00;98734.66;5070966;28;20156;-75
2021/04/15 08:12:15;;;;;;;5.85;2.05;;;;;;;5.35;100.00;98741.81;5047572;23;20040;-85
2021/04/15 08:15:00;;;;;;;5.47;2.53;;;;;;;5.60;100.00;98740.16;5047497;28;20056;-84
2021/04/15 08:17:29;;;;;;;6.13;1.98;;;;;;;5.68;100.00;98751.53;5034126;28;20064;-84
2021/04/15 08:20:27;;;;;;;7.28;2.35;;;;;;;5.68;100.00;98755.00;5057920;28;20058;-84
2021/04/15 08:23:18;;;;;;;3.80;2.30;;;;;;;5.78;100.00;98747.03;5050670;28;20147;-84
2021/04/15 08:26:03;;;;;;;4.55;1.65;;;;;;;5.58;100.00;98742.31;5066624;28;20450;-83
2021/04/15 08:28:39;;;;;;;4.63;1.67;;;;;;;5.62;100.00;98739.94;5048153;28;20045;-85
2021/04/15 08:31:49;;;;;;;3.00;1.77;;;;;;;5.47;100.00;98737.13;5049976;28;20468;-84
2021/04/15 08:34:46;;;;;;;4.50;1.67;;;;;;;5.70;100.00;98747.53;5048974;28;20256;-84
2021/04/15 08:37:33;;;;;;;4.60;1.60;;;;;;;6.08;100.00;98735.75;5049730;28;20075;-83
2021/04/15 08:40:21;;;;;;;4.93;1.75;;;;;;;6.41;100.00;98732.72;5028970;28;20057;-84
2021/04/15 08:43:23;;;;;;;5.55;1.70;;;;;;;6.22;100.00;98740.41;5029847;28;20049;-84
2021/04/15 08:46:10;;;;;;;4.40;1.45;;;;;;;6.12;100.00;98744.91;5011449;28;20050;-84
2021/04/15 08:49:00;;;;;;;4.32;1.55;;;;;;;6.15;99.95;98730.94;5015018;28;20052;-83
2021/04/15 08:51:53;;;;;;;;;;;;;;;6.50;95.01;98722.28;5048760;28;20063;-84
2021/04/15 08:55:04;;;;;;;3.20;1.48;;;;;;;6.97;90.04;98730.28;5050277;28;19989;-83
2021/04/15 08:57:50;;;;;;;2.85;1.40;;;;;;;6.71;83.31;98734.75;5038254;28;20079;-83
2021/04/15 09:00:21;;;;;;;5.20;1.38;;;;;;;6.29;90.25;98726.75;5047215;28;20053;-83
2021/04/15 09:03:05;;;;;;;4.30;1.45;;;;;;;6.72;80.92;98726.41;5063715;28;20060;-80
2021/04/15 09:06:09;;;;;;;4.22;1.55;;;;;;;6.93;93.06;98724.59;5047343;28;20106;-83
2021/04/15 09:08:57;;;;;;;5.68;1.70;;;;;;;6.86;94.86;98716.75;5049071;28;20053;-83
2021/04/15 09:11:39;;;;;;;2.40;1.55;;;;;;;7.04;89.92;98723.56;5047601;28;20060;-83
2021/04/15 09:14:17;;;;;;;7.70;1.95;;;;;;;6.74;100.00;98718.88;5062974;28;20067;-83
2021/04/15 09:17:02;;;;;;;5.78;1.67;;;;;;;6.80;95.36;98719.72;5048332;28;20060;-84
2021/04/15 09:19:40;;;;;;;5.53;1.75;;;;;;;6.67;100.00;98722.88;5048344;28;20111;-85
2021/04/15 09:22:19;;;;;;;4.57;1.77;;;;;;;6.55;96.34;98720.44;5048538;28;20061;-85
2021/04/15 09:25:06;;;;;;;4.53;1.80;;;;;;;6.73;96.87;98721.84;5046147;28;20237;-85
2021/04/15 09:27:54;;;;;;;4.22;1.40;;;;;;;6.54;83.56;98723.38;5048243;28;20073;-85
2021/04/15 09:30:32;;;;;;;3.88;1.40;;;;;;;6.27;91.14;98718.13;5043169;28;20048;-85
2021/04/15 09:33:39;;;;;;;3.67;1.58;;;;;;;6.48;94.86;98724.44;5046825;28;20068;-82
2021/04/15 09:36:15;;;;;;;3.33;1.80;;;;;;;6.49;91.78;98713.41;5063618;28;20048;-84
2021/04/15 09:39:01;;;;;;;7.40;3.50;;;;;;;6.86;88.47;98711.38;5047151;28;20053;-84
2021/04/15 09:41:41;;;;;;;5.32;1.83;;;;;;;6.90;83.86;98709.78;5030176;28;20048;-85
2021/04/15 09:44:45;;;;;;;3.92;1.98;;;;;;;6.94;83.70;98710.09;5047992;28;20055;-84
2021/04/15 09:47:26;;;;;;;7.05;1.90;;;;;;;7.48;87.42;98707.75;5011893;28;20589;-86
2021/04/15 09:50:12;;;;;;;5.65;1.80;;;;;;;7.40;81.28;98719.88;5046057;28;20127;-83
2021/04/15 09:52:54;;;;;;;4.18;1.50;;;;;;;6.76;77.53;98705.97;5049482;28;20057;-84
2021/04/15 09:55:39;;;;;;;4.93;1.50;;;;;;;6.94;82.92;98712.78;5030406;28;20049;-85
2021/04/15 09:58:41;;;;;;;4.40;1.50;;;;;;;6.85;84.82;98699.00;5046619;28;20049;-84
2021/04/15 10:01:14;;;;;;;5.15;1.75;;;;;;;6.66;82.89;98705.13;5026738;28;20069;-86
2021/04/15 10:03:53;;;;;;;3.50;1.80;;;;;;;6.82;89.28;98702.22;5028153;28;20123;-84
2021/04/15 10:06:35;;;;;;;4.30;1.42;;;;;;;6.62;80.40;98688.72;5027303;28;20041;-85
2021/04/15 10:09:37;;;;;;;7.18;2.25;;;;;;;6.81;82.76;98697.91;5012017;28;20061;-85
2021/04/15 10:12:08;;;;;;;7.30;1.90;;;;;;;6.71;78.17;98705.94;5047519;28;20061;-85
2021/04/15 10:14:48;;;;;;;8.32;1.83;;;;;;;6.85;79.56;98703.56;5045744;28;20763;-85
2021/04/15 10:17:37;;;;;;;2.33;1.40;;;;;;;7.24;73.88;98694.00;5061676;28;20127;-84
2021/04/15 10:20:09;;;;;;;5.07;1.70;;;;;;;6.98;68.89;98688.81;5037942;28;20531;-85
2021/04/15 10:23:00;;;;;;;3.20;1.52;;;;;;;6.53;72.58;98687.56;5047154;28;20140;-84
2021/04/15 10:25:31;;;;;;;4.78;1.77;;;;;;;6.92;72.01;98687.97;5047892;28;20056;-85
2021/04/15 10:28:30;;;;;;;12.63;1.63;;;;;;;6.38;70.19;98681.31;5045677;28;20052;-85
2021/04/15 10:31:06;;;;;;;5.07;1.50;;;;;;;6.77;67.54;98691.44;5046963;28;20421;-85
2021/04/15 10:33:49;;;;;;;6.15;1.60;;;;;;;7.20;67.55;98678.63;5015190;28;20071;-84
2021/04/15 10:36:32;;;;;;;6.57;1.60;;;;;;;7.50;66.94;98666.00;5028562;28;20065;-85
2021/04/15 10:39:07;;;;;;;3.60;1.30;;;;;;;7.80;63.65;98684.03;5028622;28;20045;-85
2021/04/15 10:41:42;;;;;;;3.83;1.35;;;;;;;7.78;57.36;98682.69;5046854;28;20052;-85
2021/04/15 10:44:30;;;;;;;6.68;1.40;;;;;;;7.94;52.56;98681.59;5046842;28;20075;-85
2021/04/15 10:46:56;;;;;;;3.53;1.38;;;;;;;7.81;53.22;98682.97;5044790;28;20056;-85
2021/04/15 10:49:47;;;;;;;2.15;1.38;;;;;;;8.11;53.88;98677.50;5046091;28;20052;-86
2021/04/15 10:52:44;;;;;;;3.78;1.13;;;;;;;8.24;53.94;98667.22;5045975;28;20556;-85
2021/04/15 10:55:20;;;;;;;4.40;1.25;;;;;;;7.91;54.49;98674.03;5028661;28;20055;-85
2021/04/15 10:57:47;;;;;;;4.65;1.25;;;;;;;8.06;53.86;98666.72;5030390;28;20057;-84
2021/04/15 11:00:26;;;;;;;4.40;1.58;;;;;;;8.55;54.61;98664.19;5035478;28;20126;-85
2021/04/15 11:02:55;;;;;;;4.15;1.52;;;;;;;8.98;51.81;98656.41;5042636;28;20148;-83
2021/04/15 11:05:29;;;;;;;5.03;1.48;;;;;;;8.71;50.72;98659.53;5027291;28;20045;-86
2021/04/15 11:08:05;;;;;;;6.68;1.60;;;;;;;8.43;51.15;98650.22;5027776;28;20190;-87
2021/04/15 11:10:35;;;;;;;5.35;1.20;;;;;;;8.26;52.70;98655.06;5046472;28;20056;-86
2021/04/15 11:13:21;;;;;;;3.67;1.30;;;;;;;8.71;50.08;98665.72;5040382;28;20505;-85
2021/04/15 11:15:51;;;;;;;2.97;1.08;;;;;;;8.02;49.83;98659.47;5030477;28;20068;-85
2021/04/15 11:18:25;;;;;;;5.63;1.30;;;;;;;8.54;52.35;98651.75;5032079;28;20033;-85
2021/04/15 11:20:54;;;;;;;;;;;;;;;8.49;51.12;98648.31;5048277;28;20040;-84
2021/04/15 11:23:20;;;;;;;4.25;1.13;;;;;;;7.88;51.13;98647.63;5042703;28;19925;-84
2021/04/15 11:25:51;;;;;;;2.33;1.23;;;;;;;8.25;50.44;98642.69;5043028;28;20059;-82
2021/04/15 11:28:20;;;;;;;7.13;1.50;;;;;;;8.25;51.22;98647.28;5029166;28;20148;-83
2021/04/15 11:30:57;;;;;;;3.13;1.30;;;;;;;7.80;52.52;98632.81;5043400;28;20049;-84
2021/04/15 11:33:42;;;;;;;3.28;1.73;;;;;;;8.14;54.78;98649.19;5042483;28;20049;-84
2021/04/15 11:36:20;;;;;;;4.28;1.48;;;;;;;8.11;50.16;98633.53;5046092;28;20049;-84
2021/04/15 11:38:49;;;;;;;4.45;1.30;;;;;;;7.83;51.23;98637.66;5030677;28;20461;-85
2021/04/15 11:41:24;;;;;;;5.47;1.60;;;;;;;7.98;54.51;98643.03;5030334;28;20045;-84
2021/04/15 11:44:13;;;;;;;3.58;1.80;;;;;;;8.89;54.13;98620.28;5047754;28;20103;-83
2021/04/15 11:46:58;;;;;;;6.47;1.90;;;;;;;8.08;54.60;98631.38;5048052;28;20045;-85
2021/04/15 11:49:35;;;;;;;4.55;1.20;;;;;;;7.81;53.33;98641.72;5056878;28;20075;-85
2021/04/15 11:52:05;;;;;;;3.58;0.77;;;;;;;7.52;49.68;98636.06;5056626;28;20040;-83
2021/04/15 11:54:36;;;;;;;4.70;0.70;;;;;;;7.17;46.90;98628.00;5054370;28;20041;-85
2021/04/15 11:57:14;;;;;;;3.60;0.90;;;;;;;7.01;49.12;98635.25;5051390;28;20110;-85
2021/04/15 11:59:40;;;;;;;3.25;0.63;;;;;;;6.77;48.36;98636.81;5049125;28;20469;-84
2021/04/15 12:02:29;;;;;;;7.95;0.98;;;;;;;7.33;47.74;98635.81;5048622;28;20698;-83
2021/04/15 12:05:18;;;;;;;2.03;0.82;;;;;;;7.58;45.13;98636.88;5046756;28;20151;-84
2021/04/15 12:08:26;;;;;;;2.97;0.70;;;;;;;7.67;47.36;98625.28;5046398;28;20059;-83
2021/04/15 12:11:05;;;;;;;2.70;1.00;;;;;;;7.94;48.34;98646.53;5033737;28;20457;-83
2021/04/15 12:13:39;;;;;;;1.92;0.60;;;;;;;8.26;45.14;98632.72;5050099;28;20087;-85
2021/04/15 12:16:08;;;;;;;2.42;0.70;;;;;;;8.28;41.67;98628.69;5030961;28;20049;-85
2021/04/15 12:18:39;;;;;;;1.13;0.60;;;;;;;8.88;42.51;98627.56;5047190;28;20052;-86
2021/04/15 12:21:16;;;;;;;4.05;0.68;;;;;;;9.04;43.50;98623.69;5028955;28;20076;-84